createdAt,value
2023-05-13T00:01:17.383Z,3.83
2023-05-13T00:04:22.241Z,5.00
2023-05-13T00:07:27.455Z,8.30
2023-05-13T00:10:31.276Z,4.43
2023-05-13T00:13:35.083Z,5.17
2023-05-13T00:16:39.533Z,3.07
2023-05-13T00:19:43.397Z,5.10
2023-05-13T00:22:48.806Z,7.97
2023-05-13T00:25:52.615Z,5.23
2023-05-13T00:28:56.518Z,7.67
2023-05-13T00:32:00.461Z,3.70
2023-05-13T00:35:04.422Z,4.77
2023-05-13T00:38:09.931Z,7.63
2023-05-13T00:41:14.252Z,4.00
2023-05-13T00:44:18.031Z,4.93
2023-05-13T00:47:23.276Z,5.40
2023-05-13T00:50:27.587Z,5.93
2023-05-13T00:53:34.766Z,4.60
2023-05-13T00:56:39.575Z,3.73
2023-05-13T00:59:43.329Z,4.43
2023-05-13T01:02:54.583Z,5.00
2023-05-13T01:06:06.161Z,6.30
2023-05-13T01:09:20.061Z,6.83
2023-05-13T01:12:31.229Z,4.13
2023-05-13T01:15:40.576Z,6.03
2023-05-13T01:18:47.736Z,8.77
2023-05-13T01:21:55.457Z,6.70
2023-05-13T01:25:27.952Z,4.43
2023-05-13T01:28:32.069Z,7.47
2023-05-13T01:31:40.233Z,7.23
2023-05-13T01:34:45.837Z,7.00
2023-05-13T01:37:52.953Z,9.03
2023-05-13T01:40:58.415Z,10.43
2023-05-13T01:44:02.339Z,6.37
2023-05-13T01:47:06.470Z,3.33
2023-05-13T01:50:11.202Z,4.73
2023-05-13T01:53:16.410Z,7.60
2023-05-13T01:56:20.472Z,5.63
2023-05-13T01:59:25.501Z,7.27
2023-05-13T02:02:29.190Z,7.47
2023-05-13T02:05:33.498Z,6.77
2023-05-13T02:08:43.363Z,5.83
2023-05-13T02:11:47.697Z,8.63
2023-05-13T02:14:52.555Z,4.37
2023-05-13T02:17:56.422Z,8.93
2023-05-13T02:21:00.256Z,7.43
2023-05-13T02:24:06.811Z,7.83
2023-05-13T02:27:13.011Z,6.83
2023-05-13T02:30:17.043Z,6.60
2023-05-13T02:33:21.587Z,7.87
2023-05-13T02:36:25.575Z,11.03
2023-05-13T02:39:31.038Z,9.43
2023-05-13T02:42:35.979Z,5.80
2023-05-13T02:45:41.992Z,6.10
2023-05-13T02:48:47.600Z,7.10
2023-05-13T02:51:51.516Z,6.23
2023-05-13T02:55:02.262Z,8.27
2023-05-13T02:58:06.142Z,4.87
2023-05-13T03:01:10.625Z,6.57
2023-05-13T03:04:14.651Z,11.13
2023-05-13T03:07:18.599Z,7.07
2023-05-13T03:10:24.076Z,3.20
2023-05-13T03:13:27.994Z,3.70
2023-05-13T03:16:33.172Z,7.03
2023-05-13T03:19:38.662Z,4.63
2023-05-13T03:22:42.639Z,6.80
2023-05-13T03:25:50.028Z,6.83
2023-05-13T03:28:54.069Z,4.83
2023-05-13T03:31:58.496Z,7.73
2023-05-13T03:35:03.063Z,7.97
2023-05-13T03:38:08.329Z,10.57
2023-05-13T03:41:17.967Z,6.13
2023-05-13T03:44:24.076Z,9.87
2023-05-13T03:47:28.274Z,6.43
2023-05-13T03:50:37.180Z,9.13
2023-05-13T03:53:41.376Z,7.83
2023-05-13T03:56:46.770Z,8.27
2023-05-13T03:59:50.562Z,20.00
2023-05-13T04:02:55.985Z,19.57
2023-05-13T04:05:59.915Z,16.53
2023-05-13T04:09:04.944Z,17.23
2023-05-13T04:12:10.158Z,20.03
2023-05-13T04:15:13.903Z,17.40
2023-05-13T04:18:17.748Z,17.80
2023-05-13T04:21:21.489Z,13.67
2023-05-13T04:24:25.806Z,16.07
2023-05-13T04:27:31.055Z,12.07
2023-05-13T04:30:49.613Z,11.63
2023-05-13T04:33:53.449Z,10.17
2023-05-13T04:36:57.262Z,16.73
2023-05-13T04:40:01.964Z,12.03
2023-05-13T04:43:07.467Z,21.77
2023-05-13T04:46:18.677Z,9.70
2023-05-13T04:49:22.649Z,11.00
2023-05-13T04:52:26.614Z,9.30
2023-05-13T04:55:30.425Z,7.03
2023-05-13T04:58:35.853Z,9.77
2023-05-13T05:01:39.873Z,7.13
2023-05-13T05:04:43.875Z,11.63
2023-05-13T05:07:50.819Z,10.03
2023-05-13T05:10:56.500Z,6.17
2023-05-13T05:14:01.995Z,6.20
2023-05-13T05:17:06.811Z,7.07
2023-05-13T05:20:12.005Z,12.00
2023-05-13T05:23:16.277Z,10.87
2023-05-13T05:26:21.039Z,13.13
2023-05-13T05:29:26.778Z,8.77
2023-05-13T05:32:31.521Z,11.73
2023-05-13T05:35:37.442Z,7.70
2023-05-13T05:38:44.089Z,13.70
2023-05-13T05:41:48.607Z,24.60
2023-05-13T05:44:54.294Z,18.93
2023-05-13T05:47:58.459Z,9.47
2023-05-13T05:51:03.562Z,10.30
2023-05-13T05:54:10.549Z,66.53
2023-05-13T05:57:15.599Z,69.07
2023-05-13T06:00:22.051Z,50.63
2023-05-13T06:03:26.261Z,16.27
2023-05-13T06:06:30.515Z,18.90
2023-05-13T06:09:34.503Z,14.40
2023-05-13T06:12:38.589Z,10.80
2023-05-13T06:15:43.955Z,15.77
2023-05-13T06:18:48.974Z,6.83
2023-05-13T06:21:53.013Z,13.30
2023-05-13T06:24:56.985Z,8.87
2023-05-13T06:28:02.863Z,8.67
2023-05-13T06:31:08.603Z,11.63
2023-05-13T06:34:16.923Z,7.20
2023-05-13T06:37:21.694Z,17.53
2023-05-13T06:40:25.836Z,17.37
2023-05-13T06:43:30.555Z,11.30
2023-05-13T06:46:37.782Z,10.93
2023-05-13T06:49:41.672Z,13.47
2023-05-13T06:52:45.872Z,7.73
2023-05-13T06:55:49.851Z,10.43
2023-05-13T06:58:54.095Z,9.90
2023-05-13T07:01:59.657Z,8.37
2023-05-13T07:05:03.592Z,12.17
2023-05-13T07:08:08.880Z,9.23
2023-05-13T07:11:12.830Z,11.53
2023-05-13T07:14:17.115Z,16.90
2023-05-13T07:17:22.790Z,16.43
2023-05-13T07:20:27.458Z,12.70
2023-05-13T07:23:31.852Z,18.37
2023-05-13T07:26:35.786Z,17.33
2023-05-13T07:29:39.650Z,11.77
2023-05-13T07:32:45.108Z,8.83
2023-05-13T07:35:49.157Z,10.80
2023-05-13T07:38:53.880Z,11.60
2023-05-13T07:41:57.938Z,8.07
2023-05-13T07:45:01.891Z,11.50
2023-05-13T07:48:07.723Z,6.67
2023-05-13T07:51:11.733Z,9.30
2023-05-13T07:54:15.734Z,10.03
2023-05-13T07:57:19.703Z,9.03
2023-05-13T08:00:23.733Z,9.67
2023-05-13T08:03:29.284Z,7.33
2023-05-13T08:06:33.334Z,11.63
2023-05-13T08:09:37.235Z,8.70
2023-05-13T08:12:41.596Z,8.03
2023-05-13T08:15:46.184Z,9.47
2023-05-13T08:18:55.523Z,8.53
2023-05-13T08:21:59.523Z,8.83
2023-05-13T08:25:04.902Z,6.70
2023-05-13T08:28:08.846Z,9.60
2023-05-13T08:31:13.931Z,7.93
2023-05-13T08:34:19.330Z,6.70
2023-05-13T08:37:23.326Z,8.57
2023-05-13T08:40:27.184Z,6.43
2023-05-13T08:43:32.756Z,7.53
2023-05-13T08:46:39.553Z,5.60
2023-05-13T08:49:45.330Z,6.67
2023-05-13T08:52:49.370Z,7.70
2023-05-13T08:55:53.748Z,3.30
2023-05-13T08:58:58.066Z,6.77
2023-05-13T09:02:04.110Z,5.87
2023-05-13T09:05:11.235Z,6.30
2023-05-13T09:08:15.599Z,4.30
2023-05-13T09:11:19.502Z,7.30
2023-05-13T09:14:23.525Z,3.65
2023-05-13T09:17:27.571Z,5.93
2023-05-13T09:20:33.978Z,3.50
2023-05-13T09:23:39.744Z,3.83
2023-05-13T09:26:44.065Z,3.70
2023-05-13T09:29:50.017Z,5.70
2023-05-13T09:33:11.621Z,4.10
2023-05-13T09:36:18.764Z,8.15
2023-05-13T09:39:22.670Z,3.65
2023-05-13T09:42:26.665Z,3.38
2023-05-13T09:45:30.493Z,6.00
2023-05-13T09:48:38.331Z,3.83
2023-05-13T09:51:45.518Z,3.47
2023-05-13T09:54:49.526Z,4.00
2023-05-13T09:57:55.300Z,4.10
2023-05-13T10:01:00.036Z,4.60
2023-05-13T10:04:06.491Z,13.68
2023-05-13T10:07:13.519Z,5.97
2023-05-13T10:10:17.534Z,9.27
2023-05-13T10:13:26.043Z,3.47
2023-05-13T10:16:30.858Z,4.90
2023-05-13T10:19:35.277Z,5.07
2023-05-13T10:22:41.774Z,6.53
2023-05-13T10:25:46.447Z,4.65
2023-05-13T10:28:50.774Z,3.25
2023-05-13T10:31:55.722Z,4.53
2023-05-13T10:35:06.912Z,4.28
2023-05-13T10:38:18.403Z,4.43
2023-05-13T10:41:41.031Z,5.40
2023-05-13T10:44:45.032Z,5.45
2023-05-13T10:47:52.153Z,5.28
2023-05-13T10:50:57.205Z,4.25
2023-05-13T10:54:02.609Z,3.00
2023-05-13T10:57:06.890Z,6.78
2023-05-13T11:00:19.365Z,8.25
2023-05-13T11:03:31.474Z,7.97
2023-05-13T11:06:36.997Z,5.90
2023-05-13T11:09:42.358Z,6.68
2023-05-13T11:13:10.060Z,5.28
2023-05-13T11:16:15.594Z,6.55
2023-05-13T11:19:25.047Z,6.32
2023-05-13T11:22:32.310Z,4.13
2023-05-13T11:25:38.364Z,6.63
2023-05-13T11:29:00.048Z,4.38
2023-05-13T11:32:05.731Z,7.53
2023-05-13T11:35:10.142Z,5.05
2023-05-13T11:38:25.427Z,3.92
2023-05-13T11:41:33.609Z,3.90
2023-05-13T11:44:38.546Z,4.95
2023-05-13T11:47:42.408Z,5.95
2023-05-13T11:50:46.364Z,5.03
2023-05-13T11:53:50.342Z,6.30
2023-05-13T11:56:56.161Z,5.53
2023-05-13T12:00:01.543Z,3.65
2023-05-13T12:03:12.239Z,5.80
2023-05-13T12:06:17.238Z,5.22
2023-05-13T12:09:24.197Z,6.30
2023-05-13T12:12:31.346Z,2.83
2023-05-13T12:15:35.413Z,5.32
2023-05-13T12:18:39.556Z,2.30
2023-05-13T12:21:43.431Z,6.50
2023-05-13T12:24:47.308Z,3.72
2023-05-13T12:27:55.169Z,5.28
2023-05-13T12:31:00.850Z,3.92
2023-05-13T12:34:06.667Z,3.08
2023-05-13T12:37:14.319Z,2.85
2023-05-13T12:40:18.405Z,4.35
2023-05-13T12:43:24.527Z,3.88
2023-05-13T12:46:29.019Z,5.50
2023-05-13T12:49:32.974Z,5.55
2023-05-13T12:52:36.954Z,5.32
2023-05-13T12:55:40.959Z,5.00
2023-05-13T12:58:46.365Z,4.75
2023-05-13T13:01:51.492Z,7.03
2023-05-13T13:04:55.308Z,4.75
2023-05-13T13:07:59.213Z,6.35
2023-05-13T13:11:03.080Z,3.53
2023-05-13T13:14:08.709Z,3.80
2023-05-13T13:17:12.738Z,4.30
2023-05-13T13:20:16.620Z,3.28
2023-05-13T13:23:20.669Z,4.00
2023-05-13T13:26:24.572Z,6.90
2023-05-13T13:29:29.990Z,8.65
2023-05-13T13:32:35.584Z,4.93
2023-05-13T13:35:39.610Z,4.38
2023-05-13T13:38:43.452Z,3.47
2023-05-13T13:41:47.540Z,3.42
2023-05-13T13:44:52.936Z,5.68
2023-05-13T13:47:56.833Z,3.45
2023-05-13T13:51:00.879Z,4.60
2023-05-13T13:54:08.396Z,7.38
2023-05-13T13:57:12.355Z,4.78
2023-05-13T14:00:18.461Z,4.07
2023-05-13T14:03:22.478Z,6.40
2023-05-13T14:06:26.599Z,8.88
2023-05-13T14:09:31.746Z,4.47
2023-05-13T14:12:36.088Z,3.50
2023-05-13T14:15:41.592Z,3.47
2023-05-13T14:18:45.560Z,4.45
2023-05-13T14:21:49.626Z,4.78
2023-05-13T14:24:53.960Z,6.68
2023-05-13T14:27:58.084Z,4.70
2023-05-13T14:31:03.487Z,4.05
2023-05-13T14:34:08.154Z,5.75
2023-05-13T14:37:12.130Z,3.88
2023-05-13T14:40:16.081Z,4.47
2023-05-13T14:43:19.998Z,2.45
2023-05-13T14:46:25.418Z,5.55
2023-05-13T14:49:29.318Z,4.40
2023-05-13T14:52:33.186Z,6.35
2023-05-13T14:55:37.145Z,3.17
2023-05-13T14:58:41.003Z,4.93
2023-05-13T15:01:46.591Z,4.40
2023-05-13T15:04:50.537Z,4.97
2023-05-13T15:07:54.455Z,4.75
2023-05-13T15:10:58.379Z,4.90
2023-05-13T15:14:03.468Z,5.00
2023-05-13T15:17:12.125Z,4.50
2023-05-13T15:20:16.149Z,3.53
2023-05-13T15:23:20.112Z,4.75
2023-05-13T15:26:23.908Z,4.88
2023-05-13T15:29:28.888Z,4.15
2023-05-13T15:32:34.636Z,4.95
2023-05-13T15:35:38.586Z,5.75
2023-05-13T15:38:42.456Z,8.15
2023-05-13T15:41:46.720Z,4.32
2023-05-13T15:44:50.715Z,7.32
2023-05-13T15:47:56.196Z,4.72
2023-05-13T15:51:00.237Z,6.05
2023-05-13T15:54:04.171Z,3.70
2023-05-13T15:57:09.338Z,3.92
2023-05-13T16:00:14.687Z,4.70
2023-05-13T16:03:20.267Z,7.03
2023-05-13T16:06:24.324Z,8.02
2023-05-13T16:09:28.235Z,4.18
2023-05-13T16:12:32.782Z,4.63
2023-05-13T16:15:36.669Z,5.65
2023-05-13T16:18:43.278Z,5.13
2023-05-13T16:21:47.469Z,4.97
2023-05-13T16:24:51.436Z,3.05
2023-05-13T16:27:56.796Z,6.10
2023-05-13T16:31:00.959Z,5.15
2023-05-13T16:34:06.418Z,7.85
2023-05-13T16:37:10.279Z,5.95
2023-05-13T16:40:15.290Z,5.47
2023-05-13T16:43:19.168Z,4.50
2023-05-13T16:46:23.142Z,4.78
2023-05-13T16:49:28.596Z,4.05
2023-05-13T16:52:34.353Z,5.55
2023-05-13T16:55:38.313Z,6.22
2023-05-13T16:58:42.200Z,5.22
2023-05-13T17:01:46.174Z,5.60
2023-05-13T17:04:51.745Z,5.45
2023-05-13T17:07:55.720Z,6.43
2023-05-13T17:10:59.591Z,5.43
2023-05-13T17:14:04.037Z,9.75
2023-05-13T17:17:07.954Z,5.72
2023-05-13T17:20:14.540Z,9.80
2023-05-13T17:23:18.464Z,6.97
2023-05-13T17:26:22.658Z,4.53
2023-05-13T17:29:26.678Z,6.23
2023-05-13T17:32:32.022Z,4.32
2023-05-13T17:35:37.436Z,7.53
2023-05-13T17:38:41.322Z,5.70
2023-05-13T17:41:45.311Z,5.70
2023-05-13T17:44:49.243Z,6.87
2023-05-13T17:47:53.303Z,7.93
2023-05-13T17:50:59.297Z,6.50
2023-05-13T17:54:03.285Z,6.27
2023-05-13T17:57:07.479Z,4.90
2023-05-13T18:00:12.500Z,6.60
2023-05-13T18:03:16.616Z,4.87
2023-05-13T18:06:22.136Z,12.17
2023-05-13T18:09:26.056Z,7.83
2023-05-13T18:12:31.066Z,6.83
2023-05-13T18:15:35.160Z,13.03
2023-05-13T18:18:39.049Z,7.33
2023-05-13T18:21:45.839Z,6.53
2023-05-13T18:24:49.792Z,8.07
2023-05-13T18:27:53.847Z,8.40
2023-05-13T18:30:57.820Z,9.30
2023-05-13T18:34:01.826Z,10.37
2023-05-13T18:37:08.027Z,11.23
2023-05-13T18:40:12.753Z,8.23
2023-05-13T18:43:16.697Z,8.50
2023-05-13T18:46:21.385Z,13.23
2023-05-13T18:49:28.490Z,7.27
2023-05-13T18:52:33.932Z,9.50
2023-05-13T18:55:38.166Z,9.40
2023-05-13T18:58:42.085Z,8.37
2023-05-13T19:01:46.086Z,9.27
2023-05-13T19:04:49.938Z,9.60
2023-05-13T19:07:55.496Z,8.83
2023-05-13T19:10:59.378Z,8.60
2023-05-13T19:14:03.333Z,15.37
2023-05-13T19:17:07.566Z,14.87
2023-05-13T19:20:12.730Z,14.00
2023-05-13T19:23:18.213Z,10.73
2023-05-13T19:26:22.627Z,11.53
2023-05-13T19:29:27.126Z,12.07
2023-05-13T19:32:31.262Z,14.03
2023-05-13T19:35:35.508Z,9.47
2023-05-13T19:38:40.982Z,13.10
2023-05-13T19:41:44.902Z,10.57
2023-05-13T19:44:48.965Z,10.60
2023-05-13T19:47:52.983Z,14.33
2023-05-13T19:50:58.259Z,14.17
2023-05-13T19:54:03.622Z,12.67
2023-05-13T19:57:08.033Z,13.40
2023-05-13T20:00:13.913Z,12.03
2023-05-13T20:03:18.103Z,13.17
2023-05-13T20:06:22.156Z,18.37
2023-05-13T20:09:27.589Z,13.30
2023-05-13T20:12:31.512Z,8.07
2023-05-13T20:15:35.530Z,11.47
2023-05-13T20:18:39.721Z,9.60
2023-05-13T20:21:43.674Z,9.23
2023-05-13T20:24:49.568Z,7.63
2023-05-13T20:27:53.454Z,10.77
2023-05-13T20:30:57.467Z,8.43
2023-05-13T20:34:01.372Z,6.57
2023-05-13T20:37:05.636Z,4.87
2023-05-13T20:40:11.887Z,4.10
2023-05-13T20:43:17.055Z,3.77
2023-05-13T20:46:21.082Z,3.97
2023-05-13T20:49:24.973Z,4.33
2023-05-13T20:52:28.875Z,6.47
2023-05-13T20:55:34.398Z,5.70
2023-05-13T20:58:38.322Z,5.47
2023-05-13T21:01:47.660Z,3.90
2023-05-13T21:04:51.716Z,4.43
2023-05-13T21:07:55.846Z,4.13
2023-05-13T21:11:01.243Z,3.27
2023-05-13T21:14:05.298Z,3.77
2023-05-13T21:17:09.263Z,6.13
2023-05-13T21:20:14.342Z,4.07
2023-05-13T21:23:20.369Z,3.90
2023-05-13T21:26:26.331Z,5.60
2023-05-13T21:29:30.929Z,5.30
2023-05-13T21:32:35.180Z,4.30
2023-05-13T21:35:39.130Z,8.13
2023-05-13T21:38:43.041Z,4.43
2023-05-13T21:41:48.442Z,6.27
2023-05-13T21:44:52.335Z,6.03
2023-05-13T21:47:56.449Z,11.20
2023-05-13T21:51:00.422Z,9.33
2023-05-13T21:54:05.280Z,5.33
2023-05-13T21:57:11.495Z,6.00
2023-05-13T22:00:19.069Z,8.27
2023-05-13T22:03:22.899Z,5.23
2023-05-13T22:06:26.898Z,6.40
2023-05-13T22:09:30.777Z,8.37
2023-05-13T22:12:36.187Z,4.87
2023-05-13T22:15:40.056Z,5.37
2023-05-13T22:18:44.433Z,5.80
2023-05-13T22:21:48.596Z,6.40
2023-05-13T22:24:52.547Z,6.60
2023-05-13T22:27:57.903Z,6.43
2023-05-13T22:31:01.963Z,8.30
2023-05-13T22:34:05.993Z,7.13
2023-05-13T22:37:09.885Z,5.67
2023-05-13T22:40:14.794Z,5.47
2023-05-13T22:43:20.240Z,4.83
2023-05-13T22:46:24.161Z,5.00
2023-05-13T22:49:28.095Z,4.03
2023-05-13T22:52:32.092Z,7.73
2023-05-13T22:55:35.994Z,4.93
2023-05-13T22:58:41.515Z,4.97
2023-05-13T23:01:45.569Z,5.03
2023-05-13T23:04:49.461Z,7.27
2023-05-13T23:07:53.352Z,3.37
2023-05-13T23:10:57.709Z,7.57
2023-05-13T23:14:03.103Z,3.70
2023-05-13T23:17:07.072Z,4.47
2023-05-13T23:20:12.519Z,5.80
2023-05-13T23:23:16.316Z,4.33
2023-05-13T23:26:20.264Z,7.80
2023-05-13T23:29:27.895Z,5.10
2023-05-13T23:32:31.830Z,5.07
2023-05-13T23:35:36.101Z,5.57
2023-05-13T23:38:39.965Z,4.37
2023-05-13T23:41:43.897Z,4.10
2023-05-13T23:44:49.293Z,6.53
2023-05-13T23:47:53.250Z,4.73
2023-05-13T23:50:57.235Z,5.10
2023-05-13T23:54:01.353Z,5.77
2023-05-13T23:57:05.388Z,6.53
